sensor_id;sensor_type;location;lat;lon;timestamp;pressure;altitude;pressure_sealevel;temperature;humidity
84809;BME280;75044;53.126;18.008;2024-02-23T00:01:00;98660.25;;;8.89;73.76
84809;BME280;75044;53.126;18.008;2024-02-23T00:02:23;98661.69;;;8.88;73.70
84809;BME280;75044;53.126;18.008;2024-02-23T00:03:28;98657.80;;;8.89;73.71
84809;BME280;75044;53.126;18.008;2024-02-23T00:04:31;98659.05;;;8.91;73.77
84809;BME280;75044;53.126;18.008;2024-02-23T00:05:34;98661.36;;;8.92;73.60
84809;BME280;75044;53.126;18.008;2024-02-23T00:06:38;98659.30;;;8.94;73.56
84809;BME280;75044;53.126;18.008;2024-02-23T00:07:42;98662.17;;;8.95;73.32
84809;BME280;75044;53.126;18.008;2024-02-23T00:08:45;98660.30;;;8.94;73.59
84809;BME280;75044;53.126;18.008;2024-02-23T00:09:48;98659.04;;;8.95;73.46
84809;BME280;75044;53.126;18.008;2024-02-23T00:10:51;98657.08;;;8.95;73.52
84809;BME280;75044;53.126;18.008;2024-02-23T00:11:55;98661.71;;;8.96;73.57
84809;BME280;75044;53.126;18.008;2024-02-23T00:12:58;98660.98;;;8.97;73.36
84809;BME280;75044;53.126;18.008;2024-02-23T00:14:01;98662.05;;;8.96;73.06
84809;BME280;75044;53.126;18.008;2024-02-23T00:15:07;98663.95;;;8.97;73.32
84809;BME280;75044;53.126;18.008;2024-02-23T00:16:11;98659.70;;;8.97;73.48
84809;BME280;75044;53.126;18.008;2024-02-23T00:17:14;98659.30;;;8.96;73.53
84809;BME280;75044;53.126;18.008;2024-02-23T00:18:18;98664.46;;;8.97;73.38
84809;BME280;75044;53.126;18.008;2024-02-23T00:19:21;98660.17;;;8.96;73.58
84809;BME280;75044;53.126;18.008;2024-02-23T00:20:25;98660.32;;;8.94;73.73
84809;BME280;75044;53.126;18.008;2024-02-23T00:21:28;98662.98;;;8.98;73.48
84809;BME280;75044;53.126;18.008;2024-02-23T00:22:32;98667.81;;;8.98;73.41
84809;BME280;75044;53.126;18.008;2024-02-23T00:23:36;98661.24;;;9.00;73.52
84809;BME280;75044;53.126;18.008;2024-02-23T00:24:40;98660.23;;;9.01;73.57
84809;BME280;75044;53.126;18.008;2024-02-23T00:25:43;98661.86;;;9.03;73.69
84809;BME280;75044;53.126;18.008;2024-02-23T00:26:48;98661.70;;;9.04;73.57
84809;BME280;75044;53.126;18.008;2024-02-23T00:27:51;98652.06;;;9.05;73.55
84809;BME280;75044;53.126;18.008;2024-02-23T00:28:55;98655.29;;;9.06;73.65
84809;BME280;75044;53.126;18.008;2024-02-23T00:29:59;98652.93;;;9.07;73.26
84809;BME280;75044;53.126;18.008;2024-02-23T00:31:03;98648.15;;;9.08;73.31
84809;BME280;75044;53.126;18.008;2024-02-23T00:32:06;98645.79;;;9.09;73.30
84809;BME280;75044;53.126;18.008;2024-02-23T00:33:10;98645.52;;;9.09;73.42
84809;BME280;75044;53.126;18.008;2024-02-23T00:34:13;98647.14;;;9.08;72.89
84809;BME280;75044;53.126;18.008;2024-02-23T00:35:17;98646.13;;;9.09;73.30
84809;BME280;75044;53.126;18.008;2024-02-23T00:36:20;98644.42;;;9.11;73.26
84809;BME280;75044;53.126;18.008;2024-02-23T00:37:23;98643.61;;;9.12;73.23
84809;BME280;75044;53.126;18.008;2024-02-23T00:38:27;98642.63;;;9.14;73.18
84809;BME280;75044;53.126;18.008;2024-02-23T00:39:30;98642.16;;;9.15;73.29
84809;BME280;75044;53.126;18.008;2024-02-23T00:40:35;98643.75;;;9.17;73.39
84809;BME280;75044;53.126;18.008;2024-02-23T00:41:38;98640.71;;;9.18;73.22
84809;BME280;75044;53.126;18.008;2024-02-23T00:42:43;98648.30;;;9.19;72.97
84809;BME280;75044;53.126;18.008;2024-02-23T00:43:48;98646.85;;;9.19;73.00
84809;BME280;75044;53.126;18.008;2024-02-23T00:44:51;98645.75;;;9.20;73.18
84809;BME280;75044;53.126;18.008;2024-02-23T00:45:55;98643.06;;;9.21;73.27
84809;BME280;75044;53.126;18.008;2024-02-23T00:46:58;98644.52;;;9.22;73.28
84809;BME280;75044;53.126;18.008;2024-02-23T00:48:05;98643.14;;;9.22;72.76
84809;BME280;75044;53.126;18.008;2024-02-23T00:49:09;98644.91;;;9.22;72.88
84809;BME280;75044;53.126;18.008;2024-02-23T00:50:13;98642.07;;;9.22;72.81
84809;BME280;75044;53.126;18.008;2024-02-23T00:51:16;98641.43;;;9.24;73.03
84809;BME280;75044;53.126;18.008;2024-02-23T00:52:19;98637.36;;;9.24;73.15
84809;BME280;75044;53.126;18.008;2024-02-23T00:53:23;98640.06;;;9.23;73.02
84809;BME280;75044;53.126;18.008;2024-02-23T00:54:26;98632.30;;;9.25;72.98
84809;BME280;75044;53.126;18.008;2024-02-23T00:55:29;98635.20;;;9.25;72.99
84809;BME280;75044;53.126;18.008;2024-02-23T00:56:32;98632.89;;;9.26;73.03
84809;BME280;75044;53.126;18.008;2024-02-23T00:57:37;98633.77;;;9.26;72.92
84809;BME280;75044;53.126;18.008;2024-02-23T00:58:41;98634.08;;;9.26;72.87
84809;BME280;75044;53.126;18.008;2024-02-23T00:59:44;98634.61;;;9.26;72.99
84809;BME280;75044;53.126;18.008;2024-02-23T01:00:47;98628.59;;;9.27;72.94
84809;BME280;75044;53.126;18.008;2024-02-23T01:01:51;98622.84;;;9.27;73.14
84809;BME280;75044;53.126;18.008;2024-02-23T01:02:54;98624.31;;;9.28;73.18
84809;BME280;75044;53.126;18.008;2024-02-23T01:03:57;98622.59;;;9.28;73.04
84809;BME280;75044;53.126;18.008;2024-02-23T01:05:01;98621.93;;;9.30;73.31
84809;BME280;75044;53.126;18.008;2024-02-23T01:06:05;98626.65;;;9.32;73.12
84809;BME280;75044;53.126;18.008;2024-02-23T01:07:08;98624.88;;;9.32;72.94
84809;BME280;75044;53.126;18.008;2024-02-23T01:08:11;98627.29;;;9.32;72.92
84809;BME280;75044;53.126;18.008;2024-02-23T01:09:16;98624.31;;;9.32;72.82
84809;BME280;75044;53.126;18.008;2024-02-23T01:10:23;98622.91;;;9.32;72.82
84809;BME280;75044;53.126;18.008;2024-02-23T01:11:26;98622.61;;;9.32;73.01
84809;BME280;75044;53.126;18.008;2024-02-23T01:12:29;98617.52;;;9.32;73.16
84809;BME280;75044;53.126;18.008;2024-02-23T01:13:32;98623.54;;;9.33;73.20
84809;BME280;75044;53.126;18.008;2024-02-23T01:14:36;98622.74;;;9.34;73.02
84809;BME280;75044;53.126;18.008;2024-02-23T01:15:39;98621.19;;;9.34;72.81
84809;BME280;75044;53.126;18.008;2024-02-23T01:16:43;98623.64;;;9.34;73.09
84809;BME280;75044;53.126;18.008;2024-02-23T01:17:46;98621.22;;;9.34;73.06
84809;BME280;75044;53.126;18.008;2024-02-23T01:18:49;98620.48;;;9.34;72.93
84809;BME280;75044;53.126;18.008;2024-02-23T01:19:52;98616.16;;;9.32;72.70
84809;BME280;75044;53.126;18.008;2024-02-23T01:20:59;98613.19;;;9.32;72.89
84809;BME280;75044;53.126;18.008;2024-02-23T01:22:02;98617.33;;;9.34;72.91
84809;BME280;75044;53.126;18.008;2024-02-23T01:23:05;98617.80;;;9.35;72.97
84809;BME280;75044;53.126;18.008;2024-02-23T01:24:10;98618.40;;;9.34;73.11
84809;BME280;75044;53.126;18.008;2024-02-23T01:25:13;98614.14;;;9.35;73.05
84809;BME280;75044;53.126;18.008;2024-02-23T01:26:19;98612.20;;;9.35;73.12
84809;BME280;75044;53.126;18.008;2024-02-23T01:27:22;98617.38;;;9.36;73.01
84809;BME280;75044;53.126;18.008;2024-02-23T01:28:25;98611.70;;;9.35;73.18
84809;BME280;75044;53.126;18.008;2024-02-23T01:29:29;98616.02;;;9.35;73.11
84809;BME280;75044;53.126;18.008;2024-02-23T01:30:32;98617.85;;;9.34;73.04
84809;BME280;75044;53.126;18.008;2024-02-23T01:31:35;98614.61;;;9.34;73.21
84809;BME280;75044;53.126;18.008;2024-02-23T01:32:38;98618.80;;;9.34;72.98
84809;BME280;75044;53.126;18.008;2024-02-23T01:33:42;98614.98;;;9.31;73.19
84809;BME280;75044;53.126;18.008;2024-02-23T01:34:45;98624.42;;;9.33;73.29
84809;BME280;75044;53.126;18.008;2024-02-23T01:35:48;98619.27;;;9.32;72.99
84809;BME280;75044;53.126;18.008;2024-02-23T01:36:51;98613.11;;;9.33;73.14
84809;BME280;75044;53.126;18.008;2024-02-23T01:37:55;98612.88;;;9.34;73.21
84809;BME280;75044;53.126;18.008;2024-02-23T01:38:58;98614.40;;;9.32;73.08
84809;BME280;75044;53.126;18.008;2024-02-23T01:40:01;98613.55;;;9.32;73.44
84809;BME280;75044;53.126;18.008;2024-02-23T01:41:05;98616.80;;;9.32;73.36
84809;BME280;75044;53.126;18.008;2024-02-23T01:42:10;98623.20;;;9.33;73.33
84809;BME280;75044;53.126;18.008;2024-02-23T01:43:13;98619.45;;;9.32;73.46
84809;BME280;75044;53.126;18.008;2024-02-23T01:44:17;98613.11;;;9.31;73.56
84809;BME280;75044;53.126;18.008;2024-02-23T01:45:20;98618.72;;;9.30;73.72
84809;BME280;75044;53.126;18.008;2024-02-23T01:46:23;98616.45;;;9.30;73.58
84809;BME280;75044;53.126;18.008;2024-02-23T01:47:28;98623.47;;;9.30;73.65
84809;BME280;75044;53.126;18.008;2024-02-23T01:48:32;98622.27;;;9.30;73.59
84809;BME280;75044;53.126;18.008;2024-02-23T01:49:36;98622.20;;;9.28;73.65
84809;BME280;75044;53.126;18.008;2024-02-23T01:50:39;98622.17;;;9.27;73.80
84809;BME280;75044;53.126;18.008;2024-02-23T01:51:43;98626.15;;;9.27;73.74
84809;BME280;75044;53.126;18.008;2024-02-23T01:52:48;98632.66;;;9.26;73.68
84809;BME280;75044;53.126;18.008;2024-02-23T01:53:54;98630.84;;;9.25;73.63
84809;BME280;75044;53.126;18.008;2024-02-23T01:54:58;98634.13;;;9.25;73.74
84809;BME280;75044;53.126;18.008;2024-02-23T01:56:01;98632.77;;;9.25;73.72
84809;BME280;75044;53.126;18.008;2024-02-23T01:57:06;98634.17;;;9.25;74.05
84809;BME280;75044;53.126;18.008;2024-02-23T01:58:11;98634.74;;;9.24;73.81
84809;BME280;75044;53.126;18.008;2024-02-23T01:59:14;98635.33;;;9.24;73.92
84809;BME280;75044;53.126;18.008;2024-02-23T02:00:19;98637.62;;;9.23;74.05
84809;BME280;75044;53.126;18.008;2024-02-23T02:01:23;98634.89;;;9.23;73.84
84809;BME280;75044;53.126;18.008;2024-02-23T02:02:28;98637.34;;;9.23;74.20
84809;BME280;75044;53.126;18.008;2024-02-23T02:03:32;98631.60;;;9.23;74.09
84809;BME280;75044;53.126;18.008;2024-02-23T02:04:36;98626.27;;;9.22;74.07
84809;BME280;75044;53.126;18.008;2024-02-23T02:05:39;98622.81;;;9.21;74.09
84809;BME280;75044;53.126;18.008;2024-02-23T02:06:42;98624.05;;;9.21;74.03
84809;BME280;75044;53.126;18.008;2024-02-23T02:07:47;98626.77;;;9.22;74.03
84809;BME280;75044;53.126;18.008;2024-02-23T02:08:53;98626.81;;;9.22;74.04
84809;BME280;75044;53.126;18.008;2024-02-23T02:09:57;98621.49;;;9.20;74.15
84809;BME280;75044;53.126;18.008;2024-02-23T02:11:00;98623.00;;;9.19;74.15
84809;BME280;75044;53.126;18.008;2024-02-23T02:12:08;98624.73;;;9.19;74.26
84809;BME280;75044;53.126;18.008;2024-02-23T02:13:12;98630.16;;;9.19;74.39
84809;BME280;75044;53.126;18.008;2024-02-23T02:14:16;98635.55;;;9.19;74.25
84809;BME280;75044;53.126;18.008;2024-02-23T02:15:19;98633.41;;;9.20;74.38
84809;BME280;75044;53.126;18.008;2024-02-23T02:16:25;98628.58;;;9.19;74.44
84809;BME280;75044;53.126;18.008;2024-02-23T02:17:28;98632.98;;;9.19;74.47
84809;BME280;75044;53.126;18.008;2024-02-23T02:18:32;98633.88;;;9.18;74.52
84809;BME280;75044;53.126;18.008;2024-02-23T02:19:37;98640.65;;;9.19;74.50
84809;BME280;75044;53.126;18.008;2024-02-23T02:20:44;98637.64;;;9.19;74.58
84809;BME280;75044;53.126;18.008;2024-02-23T02:21:52;98639.92;;;9.17;74.54
84809;BME280;75044;53.126;18.008;2024-02-23T02:22:56;98640.48;;;9.19;74.42
84809;BME280;75044;53.126;18.008;2024-02-23T02:24:01;98632.16;;;9.20;74.70
84809;BME280;75044;53.126;18.008;2024-02-23T02:25:05;98626.66;;;9.21;74.50
84809;BME280;75044;53.126;18.008;2024-02-23T02:26:09;98625.52;;;9.22;74.73
84809;BME280;75044;53.126;18.008;2024-02-23T02:27:12;98628.71;;;9.24;74.69
84809;BME280;75044;53.126;18.008;2024-02-23T02:28:15;98626.52;;;9.25;74.74
84809;BME280;75044;53.126;18.008;2024-02-23T02:29:19;98625.62;;;9.25;74.76
84809;BME280;75044;53.126;18.008;2024-02-23T02:30:22;98628.38;;;9.26;74.86
84809;BME280;75044;53.126;18.008;2024-02-23T02:31:25;98628.45;;;9.25;74.97
84809;BME280;75044;53.126;18.008;2024-02-23T02:32:28;98629.33;;;9.25;74.97
84809;BME280;75044;53.126;18.008;2024-02-23T02:33:31;98628.77;;;9.25;75.12
84809;BME280;75044;53.126;18.008;2024-02-23T02:34:35;98630.21;;;9.25;75.11
84809;BME280;75044;53.126;18.008;2024-02-23T02:35:40;98629.95;;;9.23;75.36
84809;BME280;75044;53.126;18.008;2024-02-23T02:36:43;98628.08;;;9.23;75.26
84809;BME280;75044;53.126;18.008;2024-02-23T02:37:47;98628.84;;;9.22;75.60
84809;BME280;75044;53.126;18.008;2024-02-23T02:38:51;98628.98;;;9.23;75.46
84809;BME280;75044;53.126;18.008;2024-02-23T02:39:54;98627.03;;;9.23;75.48
84809;BME280;75044;53.126;18.008;2024-02-23T02:41:01;98625.77;;;9.23;75.44
84809;BME280;75044;53.126;18.008;2024-02-23T02:42:05;98630.08;;;9.24;75.50
84809;BME280;75044;53.126;18.008;2024-02-23T02:43:08;98632.83;;;9.25;75.44
84809;BME280;75044;53.126;18.008;2024-02-23T02:44:14;98626.11;;;9.24;75.55
84809;BME280;75044;53.126;18.008;2024-02-23T02:45:19;98624.14;;;9.24;75.63
84809;BME280;75044;53.126;18.008;2024-02-23T02:46:23;98608.95;;;9.25;75.73
84809;BME280;75044;53.126;18.008;2024-02-23T02:47:26;98603.10;;;9.24;75.88
84809;BME280;75044;53.126;18.008;2024-02-23T02:48:30;98607.06;;;9.22;75.68
84809;BME280;75044;53.126;18.008;2024-02-23T02:49:33;98610.50;;;9.23;75.82
84809;BME280;75044;53.126;18.008;2024-02-23T02:50:38;98608.17;;;9.21;75.89
84809;BME280;75044;53.126;18.008;2024-02-23T02:51:43;98611.27;;;9.22;75.90
84809;BME280;75044;53.126;18.008;2024-02-23T02:52:49;98605.46;;;9.23;75.90
84809;BME280;75044;53.126;18.008;2024-02-23T02:53:52;98604.54;;;9.23;75.92
84809;BME280;75044;53.126;18.008;2024-02-23T02:54:56;98606.54;;;9.24;75.54
84809;BME280;75044;53.126;18.008;2024-02-23T02:55:59;98603.78;;;9.26;75.87
84809;BME280;75044;53.126;18.008;2024-02-23T02:57:02;98601.81;;;9.27;75.91
84809;BME280;75044;53.126;18.008;2024-02-23T02:58:05;98605.36;;;9.26;75.84
84809;BME280;75044;53.126;18.008;2024-02-23T02:59:09;98605.85;;;9.26;75.80
84809;BME280;75044;53.126;18.008;2024-02-23T03:00:13;98609.38;;;9.26;75.93
84809;BME280;75044;53.126;18.008;2024-02-23T03:01:17;98609.81;;;9.27;75.98
84809;BME280;75044;53.126;18.008;2024-02-23T03:02:21;98618.23;;;9.28;75.99
84809;BME280;75044;53.126;18.008;2024-02-23T03:03:24;98609.38;;;9.28;76.07
84809;BME280;75044;53.126;18.008;2024-02-23T03:04:30;98615.45;;;9.28;75.92
84809;BME280;75044;53.126;18.008;2024-02-23T03:05:33;98623.66;;;9.30;76.22
84809;BME280;75044;53.126;18.008;2024-02-23T03:06:39;98621.90;;;9.30;76.06
84809;BME280;75044;53.126;18.008;2024-02-23T03:07:42;98621.86;;;9.30;76.18
84809;BME280;75044;53.126;18.008;2024-02-23T03:08:45;98624.17;;;9.32;76.20
84809;BME280;75044;53.126;18.008;2024-02-23T03:09:49;98624.23;;;9.33;76.24
84809;BME280;75044;53.126;18.008;2024-02-23T03:10:53;98627.52;;;9.36;76.18
84809;BME280;75044;53.126;18.008;2024-02-23T03:11:58;98628.13;;;9.36;76.05
84809;BME280;75044;53.126;18.008;2024-02-23T03:13:03;98630.63;;;9.40;76.14
84809;BME280;75044;53.126;18.008;2024-02-23T03:14:09;98629.27;;;9.42;76.18
84809;BME280;75044;53.126;18.008;2024-02-23T03:15:15;98632.67;;;9.42;76.03
84809;BME280;75044;53.126;18.008;2024-02-23T03:16:21;98630.87;;;9.43;75.86
84809;BME280;75044;53.126;18.008;2024-02-23T03:17:29;98634.98;;;9.44;76.22
84809;BME280;75044;53.126;18.008;2024-02-23T03:18:33;98630.89;;;9.45;76.13
84809;BME280;75044;53.126;18.008;2024-02-23T03:19:37;98634.65;;;9.46;76.12
84809;BME280;75044;53.126;18.008;2024-02-23T03:20:41;98636.77;;;9.47;76.12
84809;BME280;75044;53.126;18.008;2024-02-23T03:21:44;98638.02;;;9.49;76.15
84809;BME280;75044;53.126;18.008;2024-02-23T03:22:53;98634.45;;;9.50;75.93
84809;BME280;75044;53.126;18.008;2024-02-23T03:23:57;98634.60;;;9.52;76.14
84809;BME280;75044;53.126;18.008;2024-02-23T03:25:03;98640.06;;;9.53;75.98
84809;BME280;75044;53.126;18.008;2024-02-23T03:26:12;98646.53;;;9.55;76.03
84809;BME280;75044;53.126;18.008;2024-02-23T03:27:26;98641.73;;;9.56;76.03
84809;BME280;75044;53.126;18.008;2024-02-23T03:28:30;98640.18;;;9.58;75.99
84809;BME280;75044;53.126;18.008;2024-02-23T03:29:33;98638.73;;;9.59;75.97
84809;BME280;75044;53.126;18.008;2024-02-23T03:30:36;98637.73;;;9.61;75.97
84809;BME280;75044;53.126;18.008;2024-02-23T03:31:41;98637.54;;;9.61;76.13
84809;BME280;75044;53.126;18.008;2024-02-23T03:32:44;98640.52;;;9.61;76.02
84809;BME280;75044;53.126;18.008;2024-02-23T03:33:50;98640.77;;;9.62;75.96
84809;BME280;75044;53.126;18.008;2024-02-23T03:34:53;98642.79;;;9.63;75.93
84809;BME280;75044;53.126;18.008;2024-02-23T03:35:57;98646.72;;;9.63;76.06
84809;BME280;75044;53.126;18.008;2024-02-23T03:37:01;98643.79;;;9.63;75.94
84809;BME280;75044;53.126;18.008;2024-02-23T03:38:05;98650.34;;;9.64;76.11
84809;BME280;75044;53.126;18.008;2024-02-23T03:39:08;98652.98;;;9.66;76.12
84809;BME280;75044;53.126;18.008;2024-02-23T03:40:12;98647.42;;;9.67;75.90
84809;BME280;75044;53.126;18.008;2024-02-23T03:41:15;98648.69;;;9.69;76.00
84809;BME280;75044;53.126;18.008;2024-02-23T03:42:18;98653.63;;;9.68;75.90
84809;BME280;75044;53.126;18.008;2024-02-23T03:43:23;98649.52;;;9.69;75.92
84809;BME280;75044;53.126;18.008;2024-02-23T03:44:26;98650.14;;;9.70;75.91
84809;BME280;75044;53.126;18.008;2024-02-23T03:45:29;98653.38;;;9.71;76.02
84809;BME280;75044;53.126;18.008;2024-02-23T03:46:32;98652.70;;;9.71;75.99
84809;BME280;75044;53.126;18.008;2024-02-23T03:47:38;98654.13;;;9.70;76.03
84809;BME280;75044;53.126;18.008;2024-02-23T03:48:41;98663.30;;;9.71;76.01
84809;BME280;75044;53.126;18.008;2024-02-23T03:49:45;98663.77;;;9.72;76.02
84809;BME280;75044;53.126;18.008;2024-02-23T03:50:49;98664.30;;;9.72;75.93
84809;BME280;75044;53.126;18.008;2024-02-23T03:51:53;98669.27;;;9.73;75.99
84809;BME280;75044;53.126;18.008;2024-02-23T03:52:57;98672.17;;;9.73;75.94
84809;BME280;75044;53.126;18.008;2024-02-23T03:54:00;98675.39;;;9.74;76.02
84809;BME280;75044;53.126;18.008;2024-02-23T03:55:04;98678.75;;;9.74;75.94
84809;BME280;75044;53.126;18.008;2024-02-23T03:56:07;98683.62;;;9.74;76.00
84809;BME280;75044;53.126;18.008;2024-02-23T03:57:11;98683.95;;;9.74;76.02
84809;BME280;75044;53.126;18.008;2024-02-23T03:58:17;98686.90;;;9.75;75.88
84809;BME280;75044;53.126;18.008;2024-02-23T03:59:20;98694.85;;;9.75;75.92
84809;BME280;75044;53.126;18.008;2024-02-23T04:00:23;98687.48;;;9.74;75.89
84809;BME280;75044;53.126;18.008;2024-02-23T04:01:27;98689.67;;;9.75;75.93
84809;BME280;75044;53.126;18.008;2024-02-23T04:02:30;98688.30;;;9.74;75.96
84809;BME280;75044;53.126;18.008;2024-02-23T04:03:33;98692.43;;;9.75;76.04
84809;BME280;75044;53.126;18.008;2024-02-23T04:04:37;98696.20;;;9.74;76.16
84809;BME280;75044;53.126;18.008;2024-02-23T04:05:40;98692.39;;;9.73;76.11
84809;BME280;75044;53.126;18.008;2024-02-23T04:06:43;98697.41;;;9.72;76.14
84809;BME280;75044;53.126;18.008;2024-02-23T04:07:46;98696.88;;;9.72;76.15
84809;BME280;75044;53.126;18.008;2024-02-23T04:08:52;98698.03;;;9.71;76.23
84809;BME280;75044;53.126;18.008;2024-02-23T04:09:55;98700.52;;;9.70;76.28
84809;BME280;75044;53.126;18.008;2024-02-23T04:10:59;98701.67;;;9.71;76.23
84809;BME280;75044;53.126;18.008;2024-02-23T04:12:03;98699.95;;;9.71;76.05
84809;BME280;75044;53.126;18.008;2024-02-23T04:13:06;98707.72;;;9.72;76.33
84809;BME280;75044;53.126;18.008;2024-02-23T04:14:09;98710.96;;;9.70;76.24
84809;BME280;75044;53.126;18.008;2024-02-23T04:15:13;98708.21;;;9.70;76.23
84809;BME280;75044;53.126;18.008;2024-02-23T04:16:17;98708.45;;;9.71;76.16
84809;BME280;75044;53.126;18.008;2024-02-23T04:17:20;98709.05;;;9.72;76.36
84809;BME280;75044;53.126;18.008;2024-02-23T04:18:23;98710.34;;;9.72;76.16
84809;BME280;75044;53.126;18.008;2024-02-23T04:19:26;98710.92;;;9.73;76.26
84809;BME280;75044;53.126;18.008;2024-02-23T04:20:30;98712.25;;;9.74;76.27
84809;BME280;75044;53.126;18.008;2024-02-23T04:21:35;98715.94;;;9.75;76.26
84809;BME280;75044;53.126;18.008;2024-02-23T04:22:39;98709.58;;;9.76;76.16
84809;BME280;75044;53.126;18.008;2024-02-23T04:23:44;98711.15;;;9.76;76.27
84809;BME280;75044;53.126;18.008;2024-02-23T04:24:47;98711.60;;;9.77;76.28
84809;BME280;75044;53.126;18.008;2024-02-23T04:25:50;98713.13;;;9.80;76.17
84809;BME280;75044;53.126;18.008;2024-02-23T04:26:56;98719.33;;;9.82;76.26
84809;BME280;75044;53.126;18.008;2024-02-23T04:27:59;98715.16;;;9.84;76.04
84809;BME280;75044;53.126;18.008;2024-02-23T04:29:02;98716.55;;;9.84;76.14
84809;BME280;75044;53.126;18.008;2024-02-23T04:30:06;98716.45;;;9.86;76.15
84809;BME280;75044;53.126;18.008;2024-02-23T04:31:11;98717.33;;;9.87;76.09
84809;BME280;75044;53.126;18.008;2024-02-23T04:32:14;98721.01;;;9.89;76.09
84809;BME280;75044;53.126;18.008;2024-02-23T04:33:17;98723.49;;;9.91;76.02
84809;BME280;75044;53.126;18.008;2024-02-23T04:34:21;98720.85;;;9.91;76.04
84809;BME280;75044;53.126;18.008;2024-02-23T04:35:24;98727.67;;;9.92;76.02
84809;BME280;75044;53.126;18.008;2024-02-23T04:36:27;98723.05;;;9.94;76.11
84809;BME280;75044;53.126;18.008;2024-02-23T04:37:30;98722.39;;;9.95;75.95
84809;BME280;75044;53.126;18.008;2024-02-23T04:38:34;98726.45;;;9.97;75.97
84809;BME280;75044;53.126;18.008;2024-02-23T04:39:37;98729.02;;;9.97;75.91
84809;BME280;75044;53.126;18.008;2024-02-23T04:40:41;98728.30;;;9.99;75.89
84809;BME280;75044;53.126;18.008;2024-02-23T04:41:45;98730.04;;;10.02;75.78
84809;BME280;75044;53.126;18.008;2024-02-23T04:42:48;98729.30;;;10.04;75.80
84809;BME280;75044;53.126;18.008;2024-02-23T04:43:51;98727.23;;;10.06;75.67
84809;BME280;75044;53.126;18.008;2024-02-23T04:44:55;98730.23;;;10.07;75.63
84809;BME280;75044;53.126;18.008;2024-02-23T04:45:59;98729.38;;;10.09;75.58
84809;BME280;75044;53.126;18.008;2024-02-23T04:47:02;98729.48;;;10.10;75.60
84809;BME280;75044;53.126;18.008;2024-02-23T04:48:07;98730.48;;;10.11;75.75
84809;BME280;75044;53.126;18.008;2024-02-23T04:49:10;98732.36;;;10.11;75.77
84809;BME280;75044;53.126;18.008;2024-02-23T04:50:16;98734.52;;;10.12;75.62
84809;BME280;75044;53.126;18.008;2024-02-23T04:51:20;98740.02;;;10.13;75.54
84809;BME280;75044;53.126;18.008;2024-02-23T04:52:26;98740.27;;;10.14;75.48
84809;BME280;75044;53.126;18.008;2024-02-23T04:53:29;98737.41;;;10.15;75.62
84809;BME280;75044;53.126;18.008;2024-02-23T04:54:32;98740.39;;;10.17;75.56
84809;BME280;75044;53.126;18.008;2024-02-23T04:55:35;98745.80;;;10.19;75.41
84809;BME280;75044;53.126;18.008;2024-02-23T04:56:39;98743.77;;;10.20;75.31
84809;BME280;75044;53.126;18.008;2024-02-23T04:57:42;98739.04;;;10.21;75.39
84809;BME280;75044;53.126;18.008;2024-02-23T04:58:46;98743.46;;;10.22;75.34
84809;BME280;75044;53.126;18.008;2024-02-23T04:59:50;98747.16;;;10.23;75.33
84809;BME280;75044;53.126;18.008;2024-02-23T05:00:53;98747.95;;;10.24;75.38
84809;BME280;75044;53.126;18.008;2024-02-23T05:01:59;98750.32;;;10.25;75.23
84809;BME280;75044;53.126;18.008;2024-02-23T05:03:03;98755.95;;;10.26;75.49
84809;BME280;75044;53.126;18.008;2024-02-23T05:04:08;98751.30;;;10.28;75.28
84809;BME280;75044;53.126;18.008;2024-02-23T05:05:12;98751.70;;;10.29;75.19
84809;BME280;75044;53.126;18.008;2024-02-23T05:06:15;98755.04;;;10.31;75.19
84809;BME280;75044;53.126;18.008;2024-02-23T05:07:21;98754.27;;;10.32;75.26
84809;BME280;75044;53.126;18.008;2024-02-23T05:08:24;98757.13;;;10.33;75.11
84809;BME280;75044;53.126;18.008;2024-02-23T05:09:27;98756.27;;;10.35;75.21
84809;BME280;75044;53.126;18.008;2024-02-23T05:10:30;98755.21;;;10.36;75.27
84809;BME280;75044;53.126;18.008;2024-02-23T05:11:34;98760.08;;;10.39;75.06
84809;BME280;75044;53.126;18.008;2024-02-23T05:12:40;98761.77;;;10.40;74.79
84809;BME280;75044;53.126;18.008;2024-02-23T05:13:43;98759.21;;;10.41;74.91
84809;BME280;75044;53.126;18.008;2024-02-23T05:14:46;98767.25;;;10.43;74.86
84809;BME280;75044;53.126;18.008;2024-02-23T05:15:50;98762.30;;;10.44;74.83
84809;BME280;75044;53.126;18.008;2024-02-23T05:16:53;98765.71;;;10.44;74.86
84809;BME280;75044;53.126;18.008;2024-02-23T05:17:56;98769.33;;;10.45;74.84
84809;BME280;75044;53.126;18.008;2024-02-23T05:18:59;98765.02;;;10.45;74.86
84809;BME280;75044;53.126;18.008;2024-02-23T05:20:03;98771.78;;;10.45;75.03
84809;BME280;75044;53.126;18.008;2024-02-23T05:21:19;98772.58;;;10.46;74.78
84809;BME280;75044;53.126;18.008;2024-02-23T05:22:25;98778.26;;;10.47;74.81
84809;BME280;75044;53.126;18.008;2024-02-23T05:23:28;98776.21;;;10.48;74.77
84809;BME280;75044;53.126;18.008;2024-02-23T05:24:33;98777.38;;;10.49;74.62
84809;BME280;75044;53.126;18.008;2024-02-23T05:25:36;98779.70;;;10.50;74.73
84809;BME280;75044;53.126;18.008;2024-02-23T05:26:39;98779.83;;;10.49;74.56
84809;BME280;75044;53.126;18.008;2024-02-23T05:27:43;98775.89;;;10.50;74.64
84809;BME280;75044;53.126;18.008;2024-02-23T05:28:47;98777.94;;;10.50;74.28
84809;BME280;75044;53.126;18.008;2024-02-23T05:29:51;98779.59;;;10.51;74.44
84809;BME280;75044;53.126;18.008;2024-02-23T05:30:55;98780.86;;;10.51;74.19
84809;BME280;75044;53.126;18.008;2024-02-23T05:31:59;98787.77;;;10.51;74.56
84809;BME280;75044;53.126;18.008;2024-02-23T05:33:05;98791.98;;;10.51;74.39
84809;BME280;75044;53.126;18.008;2024-02-23T05:34:10;98795.13;;;10.51;74.05
84809;BME280;75044;53.126;18.008;2024-02-23T05:35:13;98799.70;;;10.51;74.29
84809;BME280;75044;53.126;18.008;2024-02-23T05:36:17;98801.58;;;10.51;74.33
84809;BME280;75044;53.126;18.008;2024-02-23T05:37:21;98804.80;;;10.52;74.39
84809;BME280;75044;53.126;18.008;2024-02-23T05:38:24;98806.45;;;10.54;74.23